Time;durP1;ratioP1;P1;durP2;ratioP2;P2;SDS_P1;SDS_P2;PMS_P1;PMS_P2;Temp;Humidity;BMP_temperature;BMP_pressure;BME280_temperature;BME280_humidity;BME280_pressure;Samples;Min_cycle;Max_cycle;Signal;HPM_P1;HPM_P2
2023/01/25 00:02:09;;;;;;;41.33;17.40;;;;;;;-1.10;100.00;103424.97;7398249;19;20158;-64
2023/01/25 00:04:39;;;;;;;41.78;18.77;;;;;;;-1.06;100.00;103414.53;7396170;19;20253;-64
2023/01/25 00:07:08;;;;;;;32.85;16.50;;;;;;;-1.15;100.00;103420.91;7395921;19;20171;-64
2023/01/25 00:09:38;;;;;;;34.67;14.52;;;;;;;-1.28;100.00;103419.28;7392140;19;20194;-64
2023/01/25 00:12:07;;;;;;;39.88;17.10;;;;;;;-1.27;100.00;103410.06;7394060;19;20509;-64
2023/01/25 00:14:37;;;;;;;36.78;16.42;;;;;;;-1.24;100.00;103407.94;7393782;19;20198;-64
2023/01/25 00:17:09;;;;;;;33.30;14.48;;;;;;;-1.25;100.00;103403.56;7393100;19;20174;-64
2023/01/25 00:19:38;;;;;;;48.25;19.60;;;;;;;-1.18;100.00;103398.59;7393809;19;20186;-64
2023/01/25 00:22:08;;;;;;;43.30;17.45;;;;;;;-1.08;100.00;103388.06;7395081;19;20139;-64
2023/01/25 00:24:37;;;;;;;40.10;17.75;;;;;;;-1.17;100.00;103386.88;7392961;19;20187;-64
2023/01/25 00:27:07;;;;;;;36.80;16.10;;;;;;;-1.28;100.00;103393.94;7392472;19;20178;-64
2023/01/25 00:29:36;;;;;;;39.28;16.75;;;;;;;-1.27;100.00;103392.34;7392528;19;20194;-64
2023/01/25 00:32:43;;;;;;;39.47;16.70;;;;;;;-1.19;100.00;103393.34;7393797;19;20152;-64
2023/01/25 00:35:14;;;;;;;41.25;16.25;;;;;;;-1.14;100.00;103393.25;7394465;19;20190;-64
2023/01/25 00:37:45;;;;;;;35.03;15.75;;;;;;;-1.20;100.00;103391.50;7390694;19;20194;-64
2023/01/25 00:40:14;;;;;;;37.53;17.48;;;;;;;-1.17;100.00;103391.94;7395291;19;20158;-64
2023/01/25 00:42:44;;;;;;;38.88;17.70;;;;;;;-1.15;100.00;103391.41;7391020;19;20198;-64
2023/01/25 00:45:14;;;;;;;35.65;15.80;;;;;;;-1.26;100.00;103387.47;7395435;19;20138;-64
2023/01/25 00:47:46;;;;;;;29.60;14.95;;;;;;;-1.37;100.00;103385.16;7391250;19;20218;-64
2023/01/25 00:50:15;;;;;;;34.03;15.63;;;;;;;-1.25;100.00;103374.09;7394689;19;20127;-64
2023/01/25 00:52:45;;;;;;;36.72;15.18;;;;;;;-1.32;100.00;103376.53;7390805;19;20679;-64
2023/01/25 00:55:14;;;;;;;34.97;15.65;;;;;;;-1.24;100.00;103359.78;7395559;19;20138;-65
2023/01/25 00:57:44;;;;;;;34.13;15.60;;;;;;;-1.24;100.00;103355.66;7391252;19;20206;-64
2023/01/25 01:00:14;;;;;;;37.30;17.00;;;;;;;-1.35;100.00;103355.84;7395025;19;20146;-64
2023/01/25 01:02:46;;;;;;;51.83;20.50;;;;;;;-1.15;100.00;103352.47;7389066;19;20209;-64
2023/01/25 01:05:16;;;;;;;35.53;16.00;;;;;;;-1.34;100.00;103357.66;7395381;19;20623;-64
2023/01/25 01:07:46;;;;;;;35.75;17.00;;;;;;;-1.31;100.00;103355.56;7390888;19;20557;-65
2023/01/25 01:10:15;;;;;;;40.10;18.63;;;;;;;-0.96;100.00;103343.13;7395908;19;20142;-64
2023/01/25 01:12:45;;;;;;;39.08;17.15;;;;;;;-0.75;100.00;103329.81;7391247;19;20190;-64
2023/01/25 01:15:14;;;;;;;35.13;16.65;;;;;;;-1.04;100.00;103343.78;7395743;19;20143;-64
2023/01/25 01:17:46;;;;;;;37.60;16.60;;;;;;;-1.18;100.00;103357.16;7392355;19;20233;-64
2023/01/25 01:20:16;;;;;;;36.75;17.45;;;;;;;-1.31;100.00;103360.63;7396531;19;20135;-64
2023/01/25 01:22:45;;;;;;;45.63;18.80;;;;;;;-1.18;100.00;103359.69;7392503;19;20291;-65
2023/01/25 01:25:15;;;;;;;48.25;20.17;;;;;;;-1.20;100.00;103369.63;7394972;19;20611;-64
2023/01/25 01:27:44;;;;;;;39.55;18.33;;;;;;;-0.80;100.00;103351.09;7391826;19;20229;-64
2023/01/25 01:30:14;;;;;;;38.35;17.85;;;;;;;-0.89;100.00;103357.50;7396129;19;20180;-64
2023/01/25 01:32:46;;;;;;;34.38;17.33;;;;;;;-1.15;100.00;103355.94;7390925;19;20205;-64
2023/01/25 01:35:16;;;;;;;32.97;14.15;;;;;;;-1.36;100.00;103369.22;7395950;19;20211;-64
2023/01/25 01:37:46;;;;;;;44.15;17.67;;;;;;;-1.40;100.00;103367.00;7390182;19;20547;-64
2023/01/25 01:40:16;;;;;;;32.88;14.27;;;;;;;-1.54;100.00;103367.72;7395436;19;20145;-64
2023/01/25 01:42:59;;;;;;;37.53;16.70;;;;;;;-1.46;100.00;103366.19;7391564;19;20186;-64
2023/01/25 01:45:52;;;;;;;43.72;18.13;;;;;;;-1.48;100.00;103367.63;7395046;19;20595;-64
2023/01/25 01:48:33;;;;;;;40.97;16.70;;;;;;;-1.59;100.00;103351.00;7392368;19;20219;-64
2023/01/25 01:51:04;;;;;;;39.65;17.05;;;;;;;-1.54;100.00;103344.94;7395637;19;20182;-64
2023/01/25 01:53:35;;;;;;;35.63;15.02;;;;;;;-1.61;100.00;103343.19;7392860;19;20182;-64
2023/01/25 01:56:07;;;;;;;38.22;18.27;;;;;;;-1.56;100.00;103334.59;7395009;19;20177;-65
2023/01/25 01:58:38;;;;;;;42.50;18.17;;;;;;;-1.44;100.00;103336.94;7392665;19;20194;-64
2023/01/25 02:01:07;;;;;;;43.67;17.52;;;;;;;-1.47;100.00;103342.50;7393565;19;20139;-64
2023/01/25 02:03:49;;;;;;;43.47;19.48;;;;;;;-1.58;100.00;103342.69;7391738;19;20198;-64
2023/01/25 02:06:25;;;;;;;39.25;17.58;;;;;;;-1.63;100.00;103349.69;7393307;19;20186;-64
2023/01/25 02:08:55;;;;;;;42.65;18.42;;;;;;;-1.39;100.00;103335.91;7390635;19;20189;-64
2023/01/25 02:11:25;;;;;;;42.40;18.90;;;;;;;-1.63;100.00;103339.56;7394764;19;20139;-64
2023/01/25 02:13:56;;;;;;;40.25;17.45;;;;;;;-1.70;100.00;103344.53;7390883;19;20190;-64
2023/01/25 02:16:28;;;;;;;31.83;13.32;;;;;;;-1.60;100.00;103334.00;7393357;19;20174;-64
2023/01/25 02:19:02;;;;;;;41.08;17.33;;;;;;;-1.81;100.00;103326.28;7391152;19;20203;-64
2023/01/25 02:21:37;;;;;;;45.17;17.38;;;;;;;-1.87;100.00;103333.03;7395014;19;20159;-64
2023/01/25 02:24:10;;;;;;;37.17;16.13;;;;;;;-1.96;100.00;103332.72;7390723;19;20223;-64
2023/01/25 02:26:43;;;;;;;38.95;15.40;;;;;;;-2.05;100.00;103339.09;7393709;19;20170;-64
2023/01/25 02:29:13;;;;;;;37.08;17.17;;;;;;;-2.04;100.00;103336.75;7390898;19;20210;-64
2023/01/25 02:31:45;;;;;;;28.45;12.75;;;;;;;-2.08;100.00;103329.47;7395146;19;20639;-64
2023/01/25 02:34:15;;;;;;;37.15;14.45;;;;;;;-2.07;100.00;103323.72;7388823;19;20190;-64
2023/01/25 02:36:44;;;;;;;36.53;15.88;;;;;;;-2.08;100.00;103314.28;7390987;19;20181;-64
2023/01/25 02:39:17;;;;;;;40.10;12.98;;;;;;;-2.15;100.00;103313.25;7390761;19;20232;-63
2023/01/25 02:41:51;;;;;;;39.47;15.93;;;;;;;-2.06;100.00;103299.28;7393184;19;20159;-63
2023/01/25 02:44:23;;;;;;;45.63;20.15;;;;;;;-2.01;100.00;103297.41;7390889;19;20194;-64
2023/01/25 02:46:53;;;;;;;39.55;13.90;;;;;;;-1.90;100.00;103289.59;7391416;19;20167;-63
2023/01/25 02:49:23;;;;;;;36.53;15.90;;;;;;;-1.96;100.00;103282.13;7391079;19;20186;-63
2023/01/25 02:51:56;;;;;;;34.92;16.17;;;;;;;-2.07;100.00;103282.28;7393579;19;20154;-64
2023/01/25 02:54:26;;;;;;;37.25;13.52;;;;;;;-2.06;100.00;103282.50;7384118;19;20682;-63
2023/01/25 02:56:58;;;;;;;37.88;16.45;;;;;;;-2.13;100.00;103278.94;7390834;19;20178;-63
2023/01/25 02:59:28;;;;;;;33.40;14.57;;;;;;;-2.21;100.00;103285.53;7391038;19;20210;-63
2023/01/25 03:01:57;;;;;;;32.05;12.38;;;;;;;-2.20;100.00;103283.19;7393092;19;20134;-63
2023/01/25 03:04:27;;;;;;;32.78;14.18;;;;;;;-2.25;100.00;103278.22;7390147;19;20207;-64
2023/01/25 03:06:56;;;;;;;31.92;12.65;;;;;;;-2.24;100.00;103273.38;7391398;19;20175;-65
2023/01/25 03:09:26;;;;;;;30.52;13.55;;;;;;;-2.29;100.00;103275.97;7389893;19;20683;-63
2023/01/25 03:11:58;;;;;;;31.27;13.63;;;;;;;-2.35;100.00;103279.50;7392525;19;20131;-64
2023/01/25 03:14:27;;;;;;;25.58;10.95;;;;;;;-2.35;100.00;103271.03;7394502;19;20302;-64
2023/01/25 03:16:56;;;;;;;32.50;13.70;;;;;;;-2.34;100.00;103268.72;7397494;19;20596;-63
2023/01/25 03:19:26;;;;;;;27.85;11.00;;;;;;;-2.43;100.00;103267.47;7397390;19;20205;-64
2023/01/25 03:21:56;;;;;;;31.42;12.15;;;;;;;-2.49;100.00;103262.50;7399714;19;20155;-64
2023/01/25 03:24:26;;;;;;;27.73;11.38;;;;;;;-2.48;100.00;103253.28;7397264;19;20194;-64
2023/01/25 03:27:15;;;;;;;26.52;10.52;;;;;;;-2.42;100.00;103236.41;7397224;19;20177;-64
2023/01/25 03:29:45;;;;;;;35.65;13.85;;;;;;;-2.47;100.00;103232.34;7398144;19;20533;-64
2023/01/25 03:32:14;;;;;;;31.73;13.30;;;;;;;-2.41;100.00;103230.63;7399905;19;20353;-64
2023/01/25 03:34:44;;;;;;;25.88;9.68;;;;;;;-2.44;100.00;103237.81;7395941;19;20186;-64
2023/01/25 03:37:14;;;;;;;32.03;13.40;;;;;;;-2.45;100.00;103226.78;7396914;19;20174;-64
2023/01/25 03:39:43;;;;;;;28.52;12.35;;;;;;;-2.43;100.00;103238.75;7399292;19;20282;-63
2023/01/25 03:42:15;;;;;;;32.33;13.43;;;;;;;-2.41;100.00;103233.16;7399714;19;20147;-64
2023/01/25 03:44:45;;;;;;;32.40;13.32;;;;;;;-2.50;100.00;103229.41;7397625;19;20183;-64
2023/01/25 03:47:15;;;;;;;40.80;13.52;;;;;;;-2.53;100.00;103221.41;7396842;19;20178;-64
2023/01/25 03:49:44;;;;;;;32.40;13.45;;;;;;;-2.23;100.00;103211.97;7394280;19;20194;-64
2023/01/25 03:52:14;;;;;;;35.33;14.60;;;;;;;-2.27;100.00;103206.28;7399076;19;20138;-64
2023/01/25 03:54:43;;;;;;;37.70;14.90;;;;;;;-1.80;100.00;103193.94;7397132;19;20221;-64
2023/01/25 03:57:15;;;;;;;37.25;14.80;;;;;;;-1.85;100.00;103194.94;7396367;19;20178;-64
2023/01/25 03:59:45;;;;;;;33.00;12.98;;;;;;;-1.75;100.00;103194.50;7396723;19;20209;-64
2023/01/25 04:02:14;;;;;;;31.00;14.43;;;;;;;-2.04;100.00;103210.22;7398519;19;20166;-64
2023/01/25 04:04:44;;;;;;;38.03;14.30;;;;;;;-2.32;100.00;103214.16;7398371;19;20215;-64
2023/01/25 04:07:13;;;;;;;42.72;14.93;;;;;;;-2.33;100.00;103204.78;7396275;19;20995;-63
2023/01/25 04:09:42;;;;;;;34.65;15.05;;;;;;;-2.32;100.00;103208.19;7398564;19;20178;-63
2023/01/25 04:12:14;;;;;;;48.38;16.90;;;;;;;-2.25;100.00;103207.41;7398366;19;20131;-64
2023/01/25 04:14:44;;;;;;;36.70;13.88;;;;;;;-2.28;100.00;103199.38;7397236;19;20965;-64
2023/01/25 04:17:13;;;;;;;36.58;14.65;;;;;;;-2.38;100.00;103198.19;7395958;19;20174;-64
2023/01/25 04:19:43;;;;;;;32.58;12.90;;;;;;;-2.50;100.00;103194.00;7397658;19;20588;-64
2023/01/25 04:22:12;;;;;;;28.52;11.52;;;;;;;-2.58;100.00;103193.91;7398112;19;20139;-64
2023/01/25 04:24:42;;;;;;;32.78;11.77;;;;;;;-2.59;100.00;103186.09;7396862;19;20182;-64
2023/01/25 04:27:11;;;;;;;32.90;13.10;;;;;;;-2.59;100.00;103188.63;7395628;19;20174;-64
2023/01/25 04:29:43;;;;;;;43.03;13.45;;;;;;;-2.64;100.00;103188.03;7397782;19;20402;-63
2023/01/25 04:32:13;;;;;;;37.30;13.90;;;;;;;-2.49;100.00;103191.69;7397746;19;20139;-64
2023/01/25 04:34:42;;;;;;;37.28;13.40;;;;;;;-2.63;100.00;103177.19;7396566;19;20178;-63
2023/01/25 04:37:12;;;;;;;38.63;13.13;;;;;;;-2.71;100.00;103177.81;7395479;19;20175;-65
2023/01/25 04:39:41;;;;;;;33.85;12.73;;;;;;;-2.68;100.00;103183.25;7397527;19;20182;-64
2023/01/25 04:42:10;;;;;;;47.78;14.27;;;;;;;-2.66;100.00;103176.81;7397345;19;20166;-64
2023/01/25 04:44:40;;;;;;;41.95;16.08;;;;;;;-2.62;100.00;103173.97;7397781;19;20774;-63
2023/01/25 04:47:12;;;;;;;37.17;13.48;;;;;;;-2.52;100.00;103171.03;7395404;19;20182;-64
2023/01/25 04:49:41;;;;;;;36.38;14.82;;;;;;;-2.39;100.00;103163.50;7397137;19;20186;-64
2023/01/25 04:52:11;;;;;;;36.35;13.50;;;;;;;-2.49;100.00;103170.53;7397249;19;20134;-64
2023/01/25 04:54:40;;;;;;;35.90;13.80;;;;;;;-2.60;100.00;103172.53;7396142;19;20189;-63
2023/01/25 04:57:12;;;;;;;38.15;13.95;;;;;;;-2.63;100.00;103164.56;7394407;19;20188;-64
2023/01/25 04:59:41;;;;;;;38.53;14.27;;;;;;;-2.60;100.00;103161.53;7396423;19;20602;-64
2023/01/25 05:02:13;;;;;;;39.78;15.35;;;;;;;-2.59;100.00;103164.28;7395995;19;20131;-64
2023/01/25 05:04:43;;;;;;;40.75;16.38;;;;;;;-2.64;100.00;103164.34;7396902;19;20174;-64
2023/01/25 05:07:12;;;;;;;41.85;15.07;;;;;;;-2.63;100.00;103166.16;7395001;19;20198;-64
2023/01/25 05:09:42;;;;;;;44.78;15.77;;;;;;;-2.63;100.00;103159.50;7396590;19;20187;-63
2023/01/25 05:12:12;;;;;;;40.17;15.75;;;;;;;-2.65;100.00;103162.53;7396706;19;20166;-64
2023/01/25 05:14:42;;;;;;;39.65;13.55;;;;;;;-2.76;100.00;103171.22;7395604;19;20182;-64
2023/01/25 05:17:14;;;;;;;33.47;14.25;;;;;;;-2.76;100.00;103162.00;7394262;19;20197;-64
2023/01/25 05:19:43;;;;;;;43.25;15.75;;;;;;;-2.71;100.00;103148.34;7396299;19;20202;-64
2023/01/25 05:22:16;;;;;;;38.80;14.25;;;;;;;-2.70;100.00;103161.94;7395810;19;20496;-64
2023/01/25 05:24:46;;;;;;;40.83;14.35;;;;;;;-2.74;100.00;103157.16;7394878;19;20182;-64
2023/01/25 05:27:15;;;;;;;36.35;13.50;;;;;;;-2.81;100.00;103157.03;7392484;19;20238;-63
2023/01/25 05:29:46;;;;;;;39.33;14.65;;;;;;;-2.88;100.00;103158.75;7395592;19;20202;-64
2023/01/25 05:32:20;;;;;;;36.90;15.55;;;;;;;-2.78;100.00;103160.88;7394061;19;20135;-63
2023/01/25 05:34:50;;;;;;;30.38;12.45;;;;;;;-2.75;100.00;103166.38;7394533;19;20145;-64
2023/01/25 05:37:21;;;;;;;36.80;13.75;;;;;;;-2.87;100.00;103179.88;7390340;19;20178;-63
2023/01/25 05:39:51;;;;;;;39.55;13.60;;;;;;;-2.98;100.00;103173.34;7395336;19;20486;-64
2023/01/25 05:42:20;;;;;;;32.45;12.77;;;;;;;-3.08;100.00;103181.31;7393674;19;20139;-64
2023/01/25 05:44:50;;;;;;;35.10;14.80;;;;;;;-2.96;100.00;103179.53;7395034;19;20127;-63
2023/01/25 05:47:22;;;;;;;34.85;15.25;;;;;;;-3.02;100.00;103176.19;7391777;19;20206;-63
2023/01/25 05:49:51;;;;;;;34.50;12.02;;;;;;;-3.00;100.00;103177.31;7394498;19;20156;-63
2023/01/25 05:52:21;;;;;;;30.30;14.50;;;;;;;-2.94;100.00;103183.19;7392293;19;20143;-63
2023/01/25 05:54:51;;;;;;;35.10;15.55;;;;;;;-2.91;100.00;103186.16;7394338;19;20131;-64
2023/01/25 05:57:20;;;;;;;37.92;16.92;;;;;;;-2.82;100.00;103175.44;7391117;19;20210;-63
2023/01/25 05:59:49;;;;;;;34.72;13.80;;;;;;;-2.75;100.00;103176.47;7393771;19;20143;-64
2023/01/25 06:02:22;;;;;;;30.85;14.55;;;;;;;-2.86;100.00;103189.28;7392529;19;20189;-63
2023/01/25 06:04:51;;;;;;;35.88;14.80;;;;;;;-2.86;100.00;103187.66;7394648;19;20166;-63
2023/01/25 06:07:21;;;;;;;35.75;15.57;;;;;;;-2.81;100.00;103184.84;7391377;19;20205;-63
2023/01/25 06:09:52;;;;;;;32.13;9.75;;;;;;;-3.02;100.00;103188.81;7394123;19;20159;-63
2023/01/25 06:12:22;;;;;;;39.35;14.88;;;;;;;-3.06;100.00;103187.50;7393261;19;20147;-64
2023/01/25 06:14:52;;;;;;;30.95;13.25;;;;;;;-3.03;100.00;103195.47;7393910;19;20145;-64
2023/01/25 06:17:24;;;;;;;33.70;14.70;;;;;;;-3.04;100.00;103202.84;7390590;19;20174;-64
2023/01/25 06:19:54;;;;;;;35.35;15.80;;;;;;;-3.01;100.00;103205.81;7393857;19;20508;-63
2023/01/25 06:22:23;;;;;;;35.40;15.85;;;;;;;-2.87;100.00;103211.09;7391434;19;20153;-64
2023/01/25 06:24:53;;;;;;;37.65;16.35;;;;;;;-2.65;100.00;103211.50;7393551;19;20259;-64
2023/01/25 06:27:22;;;;;;;39.53;14.73;;;;;;;-2.74;100.00;103210.22;7390624;19;20178;-64
2023/01/25 06:29:51;;;;;;;40.40;17.70;;;;;;;-2.83;100.00;103207.38;7393491;19;20145;-65
2023/01/25 06:32:22;;;;;;;41.72;16.27;;;;;;;-2.87;100.00;103211.09;7392187;19;20135;-63
2023/01/25 06:34:55;;;;;;;35.45;14.48;;;;;;;-2.91;100.00;103208.88;7393001;19;20151;-63
2023/01/25 06:37:24;;;;;;;42.10;16.95;;;;;;;-2.90;100.00;103215.75;7390466;19;20178;-63
2023/01/25 06:39:53;;;;;;;37.63;16.58;;;;;;;-2.82;100.00;103215.88;7392967;19;20131;-64
2023/01/25 06:42:25;;;;;;;35.58;15.57;;;;;;;-2.79;100.00;103222.25;7392188;19;20150;-63
2023/01/25 06:44:55;;;;;;;33.80;15.07;;;;;;;-2.77;100.00;103222.47;7393459;19;20131;-65
2023/01/25 06:47:24;;;;;;;35.90;13.50;;;;;;;-2.81;100.00;103230.34;7390113;19;20170;-62
2023/01/25 06:49:56;;;;;;;39.85;16.25;;;;;;;-2.81;100.00;103235.38;7400843;19;20149;-62
2023/01/25 06:52:26;;;;;;;33.85;15.55;;;;;;;-2.77;100.00;103230.06;7399390;19;20146;-63
2023/01/25 06:54:55;;;;;;;32.75;14.32;;;;;;;-2.82;100.00;103233.56;7399874;19;20477;-63
2023/01/25 06:57:25;;;;;;;34.53;14.70;;;;;;;-2.83;100.00;103232.66;7396063;19;20170;-64
2023/01/25 06:59:54;;;;;;;38.17;15.95;;;;;;;-2.78;100.00;103228.25;7400346;19;20157;-63
2023/01/25 07:02:24;;;;;;;30.85;12.00;;;;;;;-2.86;100.00;103238.19;7398045;19;20150;-62
2023/01/25 07:04:53;;;;;;;34.65;14.10;;;;;;;-2.79;100.00;103228.91;7400106;19;20539;-63
2023/01/25 07:07:25;;;;;;;20.33;8.15;;;;;;;-2.92;100.00;103222.19;7396165;19;20504;-63
2023/01/25 07:09:55;;;;;;;27.48;10.88;;;;;;;-2.89;100.00;103220.09;7400958;19;20135;-63
2023/01/25 07:12:24;;;;;;;29.77;11.85;;;;;;;-2.91;100.00;103219.00;7398708;19;20159;-62
2023/01/25 07:14:54;;;;;;;27.10;9.68;;;;;;;-2.95;100.00;103214.22;7399391;19;20131;-62
2023/01/25 07:17:23;;;;;;;33.10;14.70;;;;;;;-2.90;100.00;103209.78;7396404;19;20171;-62
2023/01/25 07:19:53;;;;;;;27.02;12.82;;;;;;;-2.95;100.00;103211.69;7399790;19;20135;-62
2023/01/25 07:22:25;;;;;;;32.33;13.52;;;;;;;-2.83;100.00;103209.00;7397900;19;20154;-63
2023/01/25 07:24:56;;;;;;;37.58;15.55;;;;;;;-2.76;100.00;103206.59;7399141;19;20646;-64
2023/01/25 07:27:26;;;;;;;31.38;14.40;;;;;;;-2.59;100.00;103207.25;7395691;19;20204;-63
2023/01/25 07:29:55;;;;;;;33.97;13.30;;;;;;;-2.78;100.00;103206.38;7399914;19;20146;-63
2023/01/25 07:32:24;;;;;;;37.17;14.63;;;;;;;-2.78;100.00;103205.50;7395527;19;20146;-62
2023/01/25 07:34:54;;;;;;;35.45;14.40;;;;;;;-2.78;100.00;103201.31;7398695;19;20148;-62
2023/01/25 07:37:26;;;;;;;35.67;14.70;;;;;;;-2.78;100.00;103192.84;7394642;19;20181;-62
2023/01/25 07:39:57;;;;;;;33.97;15.27;;;;;;;-2.74;100.00;103198.53;7399417;19;20135;-62
2023/01/25 07:42:26;;;;;;;30.58;14.20;;;;;;;-2.73;100.00;103191.81;7397780;19;20168;-62
2023/01/25 07:44:56;;;;;;;31.65;14.27;;;;;;;-2.79;100.00;103183.41;7399120;19;20157;-62
2023/01/25 07:47:25;;;;;;;31.30;13.80;;;;;;;-2.78;100.00;103188.69;7394342;19;20171;-62
2023/01/25 07:49:55;;;;;;;33.90;14.63;;;;;;;-2.76;100.00;103187.28;7398493;19;20131;-62
2023/01/25 07:52:28;;;;;;;32.92;13.13;;;;;;;-2.75;100.00;103183.13;7397367;19;20170;-62
2023/01/25 07:54:58;;;;;;;32.72;12.95;;;;;;;-2.81;100.00;103180.72;7399323;19;20142;-62
2023/01/25 07:57:27;;;;;;;29.67;12.30;;;;;;;-2.84;100.00;103190.38;7394991;19;20643;-62
2023/01/25 07:59:57;;;;;;;26.98;10.95;;;;;;;-2.89;100.00;103182.19;7397000;19;20150;-63
2023/01/25 08:02:26;;;;;;;27.92;12.25;;;;;;;-2.87;100.00;103170.66;7396581;19;20607;-63
2023/01/25 08:04:55;;;;;;;30.73;11.40;;;;;;;-2.92;100.00;103170.75;7398419;19;20139;-62
2023/01/25 08:07:30;;;;;;;33.38;15.13;;;;;;;-2.90;100.00;103166.81;7395662;19;20178;-61
2023/01/25 08:09:59;;;;;;;23.35;10.32;;;;;;;-2.83;100.00;103168.56;7398851;19;20126;-63
2023/01/25 08:12:29;;;;;;;32.17;14.65;;;;;;;-2.96;100.00;103168.53;7397408;19;20185;-63
2023/01/25 08:14:58;;;;;;;38.55;16.00;;;;;;;-2.89;100.00;103168.63;7399383;19;20135;-62
2023/01/25 08:17:31;;;;;;;35.10;15.55;;;;;;;-2.76;100.00;103164.53;7394364;19;20181;-62
2023/01/25 08:20:00;;;;;;;35.75;16.33;;;;;;;-2.75;100.00;103156.25;7398716;19;20135;-62
2023/01/25 08:22:32;;;;;;;36.00;14.98;;;;;;;-2.75;100.00;103160.38;7396159;19;20145;-61
2023/01/25 08:25:02;;;;;;;37.45;16.08;;;;;;;-2.71;100.00;103144.94;7398662;19;20150;-63
2023/01/25 08:27:32;;;;;;;39.78;16.20;;;;;;;-2.75;100.00;103143.63;7392268;19;20180;-62
2023/01/25 08:30:02;;;;;;;35.10;15.60;;;;;;;-2.68;100.00;103137.75;7397816;19;20166;-62
2023/01/25 08:32:31;;;;;;;28.50;12.55;;;;;;;-2.73;100.00;103149.78;7395935;19;20521;-62
2023/01/25 08:35:00;;;;;;;27.33;10.52;;;;;;;-2.86;100.00;103149.75;7397647;19;20142;-61
2023/01/25 08:37:32;;;;;;;39.47;13.10;;;;;;;-2.86;100.00;103147.22;7393590;19;20178;-61
2023/01/25 08:40:02;;;;;;;38.60;16.08;;;;;;;-2.86;100.00;103141.28;7398005;19;20138;-63
2023/01/25 08:42:31;;;;;;;41.78;17.50;;;;;;;-2.82;100.00;103127.44;7397001;19;20146;-62
2023/01/25 08:45:01;;;;;;;39.03;16.00;;;;;;;-2.76;100.00;103119.03;7397787;19;20158;-62
2023/01/25 08:47:31;;;;;;;35.05;14.90;;;;;;;-2.71;100.00;103112.09;7391371;19;20540;-63
2023/01/25 08:50:01;;;;;;;34.40;14.43;;;;;;;-2.66;100.00;103111.09;7397524;19;20139;-63
2023/01/25 08:52:33;;;;;;;37.20;15.88;;;;;;;-2.72;100.00;103112.78;7392262;19;20155;-61
2023/01/25 08:55:03;;;;;;;33.10;16.08;;;;;;;-2.67;100.00;103106.72;7398324;19;20190;-62
2023/01/25 08:57:32;;;;;;;37.88;15.70;;;;;;;-2.64;100.00;103099.53;7389443;19;20571;-63
2023/01/25 09:00:02;;;;;;;36.03;16.10;;;;;;;-2.60;100.00;103096.69;7397806;19;20135;-63
2023/01/25 09:02:31;;;;;;;35.80;16.27;;;;;;;-2.51;100.00;103096.13;7394369;19;20169;-62
2023/01/25 09:05:01;;;;;;;54.90;14.10;;;;;;;-2.64;100.00;103094.50;7396362;19;20151;-62
2023/01/25 09:07:37;;;;;;;43.20;16.65;;;;;;;-2.71;100.00;103091.88;7392168;19;20174;-62
2023/01/25 09:10:07;;;;;;;38.25;15.10;;;;;;;-2.81;100.00;103094.78;7396654;19;20206;-62
2023/01/25 09:12:37;;;;;;;39.13;16.58;;;;;;;-2.78;100.00;103097.69;7394529;19;20205;-62
2023/01/25 09:15:08;;;;;;;38.22;16.52;;;;;;;-2.68;100.00;103089.72;7396454;19;20174;-62
2023/01/25 09:17:38;;;;;;;75.88;19.30;;;;;;;-2.58;100.00;103074.16;7392098;19;20222;-62
2023/01/25 09:20:09;;;;;;;29.92;12.52;;;;;;;-2.61;100.00;103078.81;7396200;19;20242;-61
2023/01/25 09:22:41;;;;;;;36.17;13.35;;;;;;;-2.74;100.00;103077.19;7393848;19;20599;-61
2023/01/25 09:25:11;;;;;;;35.63;14.68;;;;;;;-2.74;100.00;103077.19;7396367;19;20583;-62
2023/01/25 09:27:41;;;;;;;34.83;14.65;;;;;;;-2.76;100.00;103077.69;7392134;19;20407;-61
2023/01/25 09:30:12;;;;;;;34.65;15.75;;;;;;;-2.73;100.00;103080.63;7395518;19;20142;-62
2023/01/25 09:32:49;;;;;;;40.90;15.27;;;;;;;-2.64;100.00;103079.31;7392273;19;20201;-61
2023/01/25 09:35:22;;;;;;;42.63;15.85;;;;;;;-2.67;100.00;103067.91;7395850;19;20135;-62
2023/01/25 09:37:54;;;;;;;33.55;15.55;;;;;;;-2.69;100.00;103084.47;7390555;19;20514;-62
2023/01/25 09:40:25;;;;;;;39.60;14.85;;;;;;;-2.75;100.00;103076.97;7395870;19;20145;-61
2023/01/25 09:43:02;;;;;;;39.53;15.32;;;;;;;-2.68;100.00;103066.97;7391351;19;20198;-62
2023/01/25 09:45:36;;;;;;;37.78;17.38;;;;;;;-2.68;100.00;103068.63;7394207;19;20933;-62
2023/01/25 09:48:19;;;;;;;39.05;17.23;;;;;;;-2.56;100.00;103056.66;7391585;19;20208;-62
2023/01/25 09:51:12;;;;;;;42.78;17.38;;;;;;;-2.53;100.00;103052.94;7395272;19;20142;-62
2023/01/25 09:53:49;;;;;;;39.50;13.23;;;;;;;-2.60;100.00;103043.59;7393184;19;20194;-61
2023/01/25 09:56:22;;;;;;;39.47;15.93;;;;;;;-2.60;100.00;103046.13;7393808;19;20209;-62
2023/01/25 09:58:53;;;;;;;37.10;15.40;;;;;;;-2.66;100.00;103049.50;7391070;19;20182;-62
2023/01/25 10:01:27;;;;;;;18.65;7.97;;;;;;;-2.78;100.00;103047.16;7394528;19;20153;-61
2023/01/25 10:04:12;;;;;;;25.35;11.40;;;;;;;-2.90;100.00;103054.03;7389752;19;20658;-62
2023/01/25 10:06:44;;;;;;;54.55;17.45;;;;;;;-2.89;100.00;103053.31;7394348;19;20166;-62
2023/01/25 10:09:37;;;;;;;37.33;14.57;;;;;;;-2.90;100.00;103048.97;7391317;19;20592;-61
2023/01/25 10:12:13;;;;;;;30.83;12.10;;;;;;;-2.92;100.00;103047.84;7394996;19;20143;-61
2023/01/25 10:14:43;;;;;;;49.60;19.00;;;;;;;-2.88;100.00;103049.16;7394857;19;20182;-61
2023/01/25 10:17:16;;;;;;;45.15;17.58;;;;;;;-2.88;100.00;103050.09;7392041;19;20182;-61
2023/01/25 10:19:59;;;;;;;50.15;18.50;;;;;;;-2.81;100.00;103035.72;7392486;19;20200;-59
2023/01/25 10:22:30;;;;;;;53.22;20.55;;;;;;;-2.74;100.00;103026.66;7390990;19;20135;-61
2023/01/25 10:25:28;;;;;;;35.22;14.13;;;;;;;-2.79;100.00;103016.63;7393919;19;20965;-62
2023/01/25 10:28:14;;;;;;;49.60;20.77;;;;;;;-2.73;100.00;103012.38;7388969;19;20213;-62
2023/01/25 10:30:49;;;;;;;51.83;20.55;;;;;;;-2.74;100.00;103006.44;7394778;19;20138;-61
2023/01/25 10:33:20;;;;;;;54.95;20.50;;;;;;;-2.71;100.00;103006.81;7391326;19;20213;-61
2023/01/25 10:35:51;;;;;;;60.65;22.50;;;;;;;-2.68;100.00;103001.25;7392285;19;20495;-62
2023/01/25 10:38:25;;;;;;;59.60;23.25;;;;;;;-2.72;100.00;102999.06;7390381;19;20194;-61
2023/01/25 10:41:01;;;;;;;54.67;21.92;;;;;;;-2.66;100.00;102986.28;7393206;19;20142;-61
2023/01/25 10:43:31;;;;;;;57.95;23.25;;;;;;;-2.65;100.00;102991.56;7390921;19;20190;-61
2023/01/25 10:46:00;;;;;;;67.50;23.92;;;;;;;-2.62;100.00;102994.47;7391787;19;20166;-62
2023/01/25 10:48:33;;;;;;;56.65;24.00;;;;;;;-2.59;100.00;102996.50;7390594;19;20190;-62
2023/01/25 10:51:03;;;;;;;62.20;22.17;;;;;;;-2.60;100.00;102994.69;7393739;19;20141;-62
2023/01/25 10:53:34;;;;;;;58.80;26.15;;;;;;;-2.60;100.00;102985.47;7391081;19;20194;-63
2023/01/25 10:56:21;;;;;;;68.63;26.25;;;;;;;-2.70;100.00;102987.53;7392051;19;20618;-63
2023/01/25 10:58:53;;;;;;;44.97;16.98;;;;;;;-2.74;100.00;102970.13;7389946;19;20532;-62
2023/01/25 11:01:29;;;;;;;63.75;22.83;;;;;;;-2.82;100.00;102973.28;7393417;19;20504;-62
2023/01/25 11:04:02;;;;;;;48.55;19.15;;;;;;;-2.77;100.00;102963.03;7388945;19;20304;-62
2023/01/25 11:06:34;;;;;;;53.80;21.20;;;;;;;-2.72;100.00;102958.63;7393835;19;20171;-63
2023/01/25 11:09:08;;;;;;;69.32;25.95;;;;;;;-2.67;100.00;102944.94;7390001;19;20353;-63
2023/01/25 11:11:41;;;;;;;65.13;25.60;;;;;;;-2.73;100.00;102941.59;7394440;19;20144;-62
2023/01/25 11:14:17;;;;;;;57.28;22.58;;;;;;;-2.71;100.00;102937.69;7389679;19;20190;-64
2023/01/25 11:16:49;;;;;;;73.93;26.50;;;;;;;-2.69;100.00;102928.66;7391131;19;20182;-63
2023/01/25 11:19:32;;;;;;;53.00;22.80;;;;;;;-2.70;100.00;102926.84;7390626;19;20190;-63
2023/01/25 11:22:03;;;;;;;66.85;24.73;;;;;;;-2.67;100.00;102929.75;7392978;19;20481;-62